Time;durP1;ratioP1;P1;durP2;ratioP2;P2;SDS_P1;SDS_P2;PMS_P1;PMS_P2;Temp;Humidity;BMP_temperature;BMP_pressure;BME280_temperature;BME280_humidity;BME280_pressure;Samples;Min_cycle;Max_cycle;Signal;HPM_P1;HPM_P2
2022/10/01 00:01:51;;;;;;;7.53;6.85;;;13.20;99.90;;;;;;6157778;23;20225;-77
2022/10/01 00:04:18;;;;;;;6.93;6.35;;;13.20;99.90;;;;;;6170782;23;20209;-77
2022/10/01 00:06:45;;;;;;;6.80;6.10;;;13.20;99.90;;;;;;6172096;23;20202;-78
2022/10/01 00:09:13;;;;;;;6.95;6.30;;;13.20;99.90;;;;;;6170995;23;20209;-78
2022/10/01 00:11:44;;;;;;;7.05;6.43;;;13.20;99.90;;;;;;6155059;23;20225;-80
2022/10/01 00:14:12;;;;;;;7.95;7.25;;;13.20;99.90;;;;;;6148618;23;20212;-80
2022/10/01 00:16:39;;;;;;;6.68;6.15;;;13.10;99.90;;;;;;6169708;23;20224;-76
2022/10/01 00:19:06;;;;;;;7.55;6.95;;;13.10;99.90;;;;;;6165241;23;20209;-76
2022/10/01 00:21:33;;;;;;;6.63;6.13;;;13.10;99.90;;;;;;6165238;23;20210;-77
2022/10/01 00:24:03;;;;;;;7.18;6.57;;;13.10;99.90;;;;;;6166290;23;20217;-80
2022/10/01 00:26:32;;;;;;;7.40;6.80;;;13.10;99.90;;;;;;6168229;23;20210;-78
2022/10/01 00:29:01;;;;;;;9.30;8.02;;;13.10;99.90;;;;;;6164936;23;20190;-76
2022/10/01 00:31:30;;;;;;;8.10;7.43;;;13.10;99.90;;;;;;6164478;23;20511;-77
2022/10/01 00:33:59;;;;;;;8.30;7.50;;;13.10;99.90;;;;;;6164420;23;20257;-77
2022/10/01 00:36:30;;;;;;;7.65;6.95;;;13.10;99.90;;;;;;6163312;23;20256;-76
2022/10/01 00:38:59;;;;;;;8.25;7.55;;;13.00;99.90;;;;;;6160198;23;20197;-77
2022/10/01 00:41:27;;;;;;;8.20;7.60;;;13.10;99.90;;;;;;6158365;23;20276;-80
2022/10/01 00:43:57;;;;;;;8.90;8.07;;;13.00;99.90;;;;;;6160204;23;20277;-81
2022/10/01 00:46:28;;;;;;;11.57;8.38;;;13.00;99.90;;;;;;6156336;23;20207;-79
2022/10/01 00:49:00;;;;;;;9.10;8.40;;;13.00;99.90;;;;;;6160565;23;20202;-80
2022/10/01 00:51:31;;;;;;;6.85;6.22;;;13.00;99.90;;;;;;6157734;23;20198;-77
2022/10/01 00:54:05;;;;;;;9.73;7.40;;;13.00;99.90;;;;;;6159683;23;20217;-77
2022/10/01 00:56:33;;;;;;;9.65;8.85;;;13.00;99.90;;;;;;6158197;23;20197;-78
2022/10/01 00:59:00;;;;;;;8.57;7.70;;;13.00;99.90;;;;;;6157627;23;20220;-79
2022/10/01 01:01:27;;;;;;;7.68;7.03;;;13.00;99.90;;;;;;6157439;23;20518;-78
2022/10/01 01:03:57;;;;;;;9.30;8.38;;;12.90;99.90;;;;;;6161131;23;20286;-81
2022/10/01 01:06:24;;;;;;;10.98;9.88;;;13.00;99.90;;;;;;6160593;23;20268;-81
2022/10/01 01:08:53;;;;;;;10.35;9.25;;;12.90;99.90;;;;;;6161380;23;20233;-80
2022/10/01 01:11:26;;;;;;;12.45;9.10;;;12.90;99.90;;;;;;6163150;23;20201;-81
2022/10/01 01:14:00;;;;;;;10.20;8.90;;;12.90;99.90;;;;;;6158877;23;20469;-80
2022/10/01 01:16:34;;;;;;;10.05;9.20;;;12.90;99.90;;;;;;6159516;23;20208;-77
2022/10/01 01:19:09;;;;;;;9.10;8.30;;;12.90;99.90;;;;;;6158701;23;20634;-79
2022/10/01 01:21:41;;;;;;;8.48;7.68;;;12.90;99.90;;;;;;6158655;23;20212;-76
2022/10/01 01:24:36;;;;;;;8.30;7.60;;;12.90;99.90;;;;;;6156529;23;20206;-77
2022/10/01 01:27:36;;;;;;;8.30;7.20;;;12.90;99.90;;;;;;6156251;23;22324;-76
2022/10/01 01:30:07;;;;;;;8.60;7.80;;;12.90;99.90;;;;;;6156698;23;20206;-78
2022/10/01 01:32:45;;;;;;;8.90;8.13;;;12.90;99.90;;;;;;6156853;23;20224;-78
2022/10/01 01:35:17;;;;;;;14.00;10.63;;;12.90;99.90;;;;;;6156684;23;20539;-77
2022/10/01 01:37:52;;;;;;;9.35;8.65;;;12.90;99.90;;;;;;6156394;23;20206;-78
2022/10/01 01:40:20;;;;;;;10.00;9.13;;;12.80;99.90;;;;;;6157732;23;20502;-81
2022/10/01 01:42:50;;;;;;;9.57;8.70;;;12.80;99.90;;;;;;6156970;23;20213;-77
2022/10/01 01:45:23;;;;;;;9.13;8.23;;;12.90;99.90;;;;;;6153897;23;20272;-78
2022/10/01 01:47:54;;;;;;;8.02;7.32;;;12.80;99.90;;;;;;6156245;23;20203;-77
2022/10/01 01:50:24;;;;;;;8.95;8.07;;;12.80;99.90;;;;;;6123642;23;20269;-80
2022/10/01 01:52:53;;;;;;;8.10;7.40;;;12.80;99.90;;;;;;6149296;23;20277;-79
2022/10/01 01:55:21;;;;;;;10.52;9.25;;;12.80;99.90;;;;;;6155831;23;20206;-76
2022/10/01 01:57:51;;;;;;;8.70;7.90;;;12.80;99.90;;;;;;6155487;23;20198;-81
2022/10/01 02:00:21;;;;;;;8.60;7.90;;;12.80;99.90;;;;;;6154966;23;20265;-77
2022/10/01 02:02:51;;;;;;;7.68;7.03;;;12.80;99.90;;;;;;6156507;23;20206;-77
2022/10/01 02:05:22;;;;;;;9.68;8.77;;;12.80;99.90;;;;;;6151113;23;20226;-76
2022/10/01 02:08:16;;;;;;;9.02;8.13;;;12.80;99.90;;;;;;6156865;23;20206;-79
2022/10/01 02:11:07;;;;;;;9.30;8.40;;;12.80;99.90;;;;;;6154929;23;20208;-77
2022/10/01 02:13:45;;;;;;;10.13;9.23;;;12.80;99.90;;;;;;6156958;23;20662;-79
2022/10/01 02:16:19;;;;;;;8.60;7.90;;;12.80;99.90;;;;;;6155837;23;20194;-77
2022/10/01 02:18:52;;;;;;;9.63;8.73;;;12.80;99.90;;;;;;6156360;23;20267;-77
2022/10/01 02:21:26;;;;;;;10.90;8.35;;;12.80;99.90;;;;;;6156491;23;21230;-76
2022/10/01 02:23:59;;;;;;;9.32;8.50;;;12.80;99.90;;;;;;6154391;23;20217;-77
2022/10/01 02:26:28;;;;;;;9.27;8.35;;;12.80;99.90;;;;;;6155354;23;20202;-77
2022/10/01 02:28:58;;;;;;;9.75;8.75;;;12.80;99.90;;;;;;6114451;23;20207;-78
2022/10/01 02:31:30;;;;;;;10.57;9.68;;;12.80;99.90;;;;;;6155061;23;20197;-81
2022/10/01 02:34:00;;;;;;;10.80;9.77;;;12.70;99.90;;;;;;6156408;23;20202;-80
2022/10/01 02:36:28;;;;;;;10.55;9.65;;;12.70;99.90;;;;;;6155798;23;20201;-80
2022/10/01 02:38:59;;;;;;;10.45;9.32;;;12.70;99.90;;;;;;6154982;23;20229;-77
2022/10/01 02:41:31;;;;;;;9.80;8.90;;;12.70;99.90;;;;;;6155456;23;20209;-76
2022/10/01 02:44:02;;;;;;;10.38;9.38;;;12.60;99.90;;;;;;6155123;23;20209;-81
2022/10/01 02:46:37;;;;;;;10.10;9.20;;;12.60;99.90;;;;;;6155201;23;20506;-82
2022/10/01 02:49:07;;;;;;;10.15;9.15;;;12.60;99.90;;;;;;6156685;23;20198;-76
2022/10/01 02:51:42;;;;;;;9.18;8.32;;;12.60;99.90;;;;;;6154964;23;20222;-78
2022/10/01 02:54:17;;;;;;;9.85;9.02;;;12.60;99.90;;;;;;6154860;23;20202;-77
2022/10/01 02:59:29;;;;;;;10.02;9.23;;;12.60;99.90;;;;;;6155580;23;20237;-76
2022/10/01 03:01:57;;;;;;;9.57;8.43;;;12.60;99.90;;;;;;6156275;23;20221;-80
2022/10/01 03:04:24;;;;;;;11.98;8.88;;;12.60;99.90;;;;;;6154175;23;20506;-77
2022/10/01 03:06:52;;;;;;;10.43;9.63;;;12.60;99.90;;;;;;6156024;23;20198;-76
2022/10/01 03:09:19;;;;;;;10.45;9.55;;;12.60;99.90;;;;;;6142278;23;20468;-77
2022/10/01 03:11:46;;;;;;;9.32;8.57;;;12.60;99.90;;;;;;6154769;23;20205;-80
2022/10/01 03:14:13;;;;;;;11.00;8.77;;;12.70;99.90;;;;;;6155798;23;20194;-78
2022/10/01 03:16:43;;;;;;;10.02;9.02;;;12.70;99.90;;;;;;6155703;23;20202;-77
2022/10/01 03:19:11;;;;;;;9.55;8.65;;;12.70;99.90;;;;;;6156469;23;20198;-76
2022/10/01 03:21:38;;;;;;;12.82;9.55;;;12.60;99.90;;;;;;6155202;23;20257;-78
2022/10/01 03:24:07;;;;;;;10.20;9.20;;;12.60;99.90;;;;;;6156156;23;20202;-77
2022/10/01 03:26:34;;;;;;;9.60;8.80;;;12.60;99.90;;;;;;6155079;23;20210;-78
2022/10/01 03:29:08;;;;;;;11.27;10.27;;;12.60;99.90;;;;;;6121908;23;20201;-79
2022/10/01 03:31:36;;;;;;;14.60;12.40;;;12.60;99.90;;;;;;6152680;23;20205;-80
2022/10/01 03:34:04;;;;;;;11.70;10.10;;;12.60;99.90;;;;;;6157016;23;20508;-77
2022/10/01 03:36:32;;;;;;;11.20;10.07;;;12.60;99.90;;;;;;6157230;23;20202;-80
2022/10/01 03:39:06;;;;;;;13.52;12.07;;;12.50;99.90;;;;;;6159551;23;20205;-77
2022/10/01 03:41:32;;;;;;;11.25;10.25;;;12.50;99.90;;;;;;6158920;23;20285;-78
2022/10/01 03:44:00;;;;;;;10.85;8.90;;;12.50;99.90;;;;;;6158120;23;20264;-78
2022/10/01 03:46:26;;;;;;;11.18;9.13;;;12.50;99.90;;;;;;6156135;23;20206;-77
2022/10/01 03:48:55;;;;;;;11.07;10.07;;;12.40;99.90;;;;;;6156129;23;20202;-77
2022/10/01 03:51:22;;;;;;;9.82;7.38;;;12.40;99.90;;;;;;6156890;23;20217;-77
2022/10/01 03:53:51;;;;;;;9.23;8.43;;;12.40;99.90;;;;;;6155888;23;20635;-76
2022/10/01 03:56:18;;;;;;;12.30;9.38;;;12.40;99.90;;;;;;6155391;23;20214;-79
2022/10/01 03:58:45;;;;;;;8.88;7.25;;;12.40;99.90;;;;;;6154282;23;20288;-79
2022/10/01 04:01:15;;;;;;;9.52;8.63;;;12.40;99.90;;;;;;6155109;23;20711;-77
2022/10/01 04:03:42;;;;;;;8.93;8.20;;;12.40;99.90;;;;;;6157890;23;20202;-77
2022/10/01 04:06:09;;;;;;;10.90;9.27;;;12.40;99.90;;;;;;6160582;23;20233;-79
2022/10/01 04:08:37;;;;;;;7.95;7.22;;;12.40;99.90;;;;;;6156573;23;20213;-77
2022/10/01 04:11:06;;;;;;;12.88;11.25;;;12.40;99.90;;;;;;6157059;23;20206;-77
2022/10/01 04:13:34;;;;;;;10.60;9.50;;;12.40;99.90;;;;;;6157526;23;20787;-77
2022/10/01 04:16:02;;;;;;;8.80;8.00;;;12.40;99.90;;;;;;6159026;23;20209;-77
2022/10/01 04:18:29;;;;;;;8.43;7.72;;;12.40;99.90;;;;;;6165655;23;20206;-80
2022/10/01 04:20:58;;;;;;;8.30;7.55;;;12.40;99.90;;;;;;6160313;23;20202;-79
2022/10/01 04:23:25;;;;;;;8.10;7.30;;;12.30;99.90;;;;;;6171746;23;20278;-80
2022/10/01 04:25:53;;;;;;;8.18;7.38;;;12.30;99.90;;;;;;6163745;23;20206;-79
2022/10/01 04:28:21;;;;;;;10.18;9.27;;;12.30;99.90;;;;;;6160612;23;20204;-78
2022/10/01 04:31:23;;;;;;;15.18;13.65;;;12.30;99.90;;;;;;6159105;23;20206;-77
2022/10/01 04:33:36;;;;;;;14.88;13.32;;;12.20;99.90;;;;;;6157416;23;20268;-77
2022/10/01 04:36:03;;;;;;;13.63;10.90;;;12.20;99.90;;;;;;6161233;23;20281;-78
2022/10/01 04:38:30;;;;;;;8.07;7.35;;;12.20;99.90;;;;;;6163833;23;20686;-80
2022/10/01 04:41:00;;;;;;;8.60;7.90;;;12.20;99.90;;;;;;6159815;23;20253;-77
2022/10/01 04:43:28;;;;;;;8.25;7.55;;;12.20;99.90;;;;;;6158892;23;20233;-77
2022/10/01 04:45:55;;;;;;;8.70;7.80;;;12.10;99.90;;;;;;6165946;23;20233;-80
2022/10/01 04:48:23;;;;;;;8.32;7.47;;;12.10;99.90;;;;;;6162455;23;20570;-77
2022/10/01 04:50:50;;;;;;;8.90;7.30;;;12.10;99.90;;;;;;6164688;23;20206;-78
2022/10/01 04:53:17;;;;;;;8.27;7.53;;;12.10;99.90;;;;;;6169054;23;20236;-77
2022/10/01 04:55:45;;;;;;;7.57;6.95;;;12.10;99.90;;;;;;6167325;23;20290;-80
2022/10/01 04:58:12;;;;;;;7.80;7.10;;;12.00;99.90;;;;;;6168167;23;20208;-80
2022/10/01 05:00:41;;;;;;;8.10;7.40;;;12.00;99.90;;;;;;6168007;23;20202;-80
2022/10/01 05:03:08;;;;;;;8.40;7.60;;;12.00;99.90;;;;;;6167160;23;20206;-76
2022/10/01 05:05:36;;;;;;;11.63;10.45;;;11.90;99.90;;;;;;6167586;23;20206;-79
2022/10/01 05:08:04;;;;;;;11.15;10.05;;;11.90;99.90;;;;;;6167160;23;20213;-80
2022/10/01 05:10:31;;;;;;;9.15;8.30;;;11.90;99.90;;;;;;6167158;23;20194;-75
2022/10/01 05:13:01;;;;;;;9.80;9.00;;;11.90;99.90;;;;;;6167463;23;20210;-76
2022/10/01 05:15:28;;;;;;;12.00;9.90;;;11.90;99.90;;;;;;6170649;23;20225;-77
2022/10/01 05:17:56;;;;;;;7.80;7.20;;;11.90;99.90;;;;;;6168076;23;20210;-77
2022/10/01 05:20:26;;;;;;;8.30;7.35;;;11.90;99.90;;;;;;6169322;23;20198;-78
2022/10/01 05:22:55;;;;;;;7.85;6.35;;;11.90;99.90;;;;;;6167605;23;20210;-78
2022/10/01 05:25:22;;;;;;;8.90;7.88;;;11.90;99.90;;;;;;6170383;23;20221;-77
2022/10/01 05:27:49;;;;;;;8.68;7.93;;;11.90;99.90;;;;;;6169564;23;20201;-79
2022/10/01 05:30:23;;;;;;;8.55;7.75;;;11.90;99.90;;;;;;6170132;23;20209;-78
2022/10/01 05:33:00;;;;;;;8.05;6.32;;;11.90;99.90;;;;;;6168200;23;20265;-78
2022/10/01 05:35:27;;;;;;;8.48;7.25;;;11.90;99.90;;;;;;6170219;23;20198;-78
2022/10/01 05:37:56;;;;;;;6.25;5.72;;;11.90;99.90;;;;;;6169178;23;20230;-81
2022/10/01 05:40:24;;;;;;;8.25;7.45;;;11.90;99.90;;;;;;6172296;23;20198;-78
2022/10/01 05:42:55;;;;;;;8.20;6.80;;;11.90;99.90;;;;;;6168078;23;20254;-77
2022/10/01 05:45:26;;;;;;;7.53;6.30;;;12.00;99.90;;;;;;6169934;23;20229;-78
2022/10/01 05:48:00;;;;;;;7.65;6.85;;;12.00;99.90;;;;;;6169519;23;20210;-79
2022/10/01 05:50:30;;;;;;;7.30;6.60;;;12.00;99.90;;;;;;6171089;23;20701;-80
2022/10/01 05:52:58;;;;;;;7.07;6.47;;;12.00;99.90;;;;;;6169280;23;20237;-79
2022/10/01 05:55:25;;;;;;;7.65;6.75;;;11.90;99.90;;;;;;6170029;23;20448;-80
2022/10/01 05:58:01;;;;;;;7.20;6.47;;;12.00;99.90;;;;;;6172610;23;20198;-80
2022/10/01 06:00:29;;;;;;;7.30;6.70;;;12.00;99.90;;;;;;6172665;23;20209;-79
2022/10/01 06:03:11;;;;;;;6.68;6.15;;;12.10;99.90;;;;;;6148450;23;20206;-79
2022/10/01 06:05:38;;;;;;;7.20;5.88;;;12.10;99.90;;;;;;6168200;23;20221;-79
2022/10/01 06:08:09;;;;;;;6.68;6.07;;;12.10;99.90;;;;;;6166940;23;20257;-78
2022/10/01 06:10:36;;;;;;;8.18;6.40;;;12.10;99.90;;;;;;6152238;23;20198;-80
2022/10/01 06:13:04;;;;;;;8.43;6.95;;;12.10;99.90;;;;;;6167845;23;20210;-80
2022/10/01 06:15:36;;;;;;;8.73;6.85;;;12.10;99.90;;;;;;6168420;23;20208;-81
2022/10/01 06:18:03;;;;;;;6.70;6.20;;;12.10;99.90;;;;;;6165118;23;20270;-81
2022/10/01 06:20:42;;;;;;;6.40;5.90;;;12.20;99.90;;;;;;6164361;23;20206;-80
2022/10/01 06:23:12;;;;;;;7.03;6.50;;;12.20;99.90;;;;;;6162936;23;20217;-80
2022/10/01 06:25:40;;;;;;;6.40;5.80;;;12.30;99.90;;;;;;6162852;23;20206;-78
2022/10/01 06:28:13;;;;;;;6.93;6.18;;;12.30;99.90;;;;;;6158407;23;20237;-77
2022/10/01 06:30:41;;;;;;;6.10;5.60;;;12.30;99.90;;;;;;6158936;23;20213;-77
2022/10/01 06:33:10;;;;;;;6.00;5.50;;;12.40;99.90;;;;;;6157357;23;20210;-80
2022/10/01 06:35:43;;;;;;;10.23;6.05;;;12.40;99.90;;;;;;6157059;23;20212;-76
2022/10/01 06:38:11;;;;;;;6.70;6.10;;;12.40;99.90;;;;;;6156730;23;20194;-80
2022/10/01 06:40:38;;;;;;;7.68;6.28;;;12.40;99.90;;;;;;6158879;23;20595;-77
2022/10/01 06:43:06;;;;;;;6.40;5.80;;;12.40;99.90;;;;;;6162840;23;20206;-77
2022/10/01 06:45:36;;;;;;;6.10;5.60;;;12.40;99.90;;;;;;6164798;23;20208;-81
2022/10/01 06:48:04;;;;;;;6.93;6.30;;;12.50;99.90;;;;;;6160391;23;20288;-80
2022/10/01 06:50:33;;;;;;;6.85;6.22;;;12.50;99.90;;;;;;6166308;23;20209;-77
2022/10/01 06:53:02;;;;;;;6.82;6.20;;;12.50;99.90;;;;;;6165775;23;20210;-80
2022/10/01 06:55:31;;;;;;;9.10;8.20;;;12.60;99.90;;;;;;6165901;23;20206;-78
2022/10/01 06:58:00;;;;;;;9.43;8.23;;;12.60;99.90;;;;;;6165455;23;20206;-77
2022/10/01 07:00:28;;;;;;;8.32;7.57;;;12.60;99.90;;;;;;6143670;23;20202;-81
2022/10/01 07:02:55;;;;;;;7.65;6.85;;;12.60;99.90;;;;;;6159230;23;20233;-77
2022/10/01 07:05:23;;;;;;;9.25;8.35;;;12.60;99.90;;;;;;6158254;23;20198;-78
2022/10/01 07:07:50;;;;;;;9.63;7.00;;;12.60;99.90;;;;;;6157600;23;20285;-80
2022/10/01 07:10:22;;;;;;;10.43;9.38;;;12.60;99.90;;;;;;6156815;23;20206;-77
2022/10/01 07:12:52;;;;;;;8.43;7.63;;;12.60;99.90;;;;;;6157191;23;20230;-79
2022/10/01 07:15:21;;;;;;;6.75;5.93;;;12.60;99.90;;;;;;6156716;23;20206;-78
2022/10/01 07:17:50;;;;;;;8.38;7.65;;;12.60;99.90;;;;;;6158090;23;20209;-79
2022/10/01 07:20:18;;;;;;;8.73;7.82;;;12.60;99.90;;;;;;6154808;23;20237;-77
2022/10/01 07:22:57;;;;;;;10.07;8.60;;;12.70;99.90;;;;;;6157898;23;20630;-78
2022/10/01 07:25:26;;;;;;;7.90;7.10;;;12.70;99.90;;;;;;6158557;23;20224;-80
2022/10/01 07:27:55;;;;;;;13.43;9.80;;;12.70;99.90;;;;;;6156637;23;20202;-81
2022/10/01 07:30:23;;;;;;;10.32;7.30;;;12.70;99.90;;;;;;6154716;23;20241;-77
2022/10/01 07:32:50;;;;;;;9.27;7.72;;;12.80;99.90;;;;;;6156696;23;20217;-80
2022/10/01 07:35:19;;;;;;;11.60;10.50;;;12.80;99.90;;;;;;6156407;23;20222;-80
2022/10/01 07:37:46;;;;;;;8.30;7.47;;;12.80;99.90;;;;;;6157484;23;20205;-80
2022/10/01 07:40:15;;;;;;;6.40;5.90;;;12.90;99.90;;;;;;6156313;23;20225;-80
2022/10/01 07:42:44;;;;;;;6.88;6.28;;;12.90;99.90;;;;;;6134515;23;20290;-81
2022/10/01 07:45:11;;;;;;;6.07;5.57;;;13.00;99.90;;;;;;6138238;23;20229;-81
2022/10/01 07:47:38;;;;;;;10.57;8.05;;;13.10;99.90;;;;;;6160582;23;20650;-80
2022/10/01 07:50:06;;;;;;;8.57;7.35;;;13.10;99.90;;;;;;6160483;23;20217;-80
2022/10/01 07:52:33;;;;;;;8.02;7.22;;;13.10;99.90;;;;;;6159313;23;20194;-81
2022/10/01 07:55:00;;;;;;;8.95;8.10;;;13.20;99.90;;;;;;6160075;23;20240;-80
2022/10/01 07:57:33;;;;;;;9.75;7.95;;;13.20;99.90;;;;;;6159056;23;20225;-78
2022/10/01 08:00:03;;;;;;;9.50;6.60;;;13.30;99.90;;;;;;6158193;23;20509;-79
2022/10/01 08:02:30;;;;;;;8.55;7.75;;;13.40;99.90;;;;;;6158015;23;22156;-78
2022/10/01 08:05:20;;;;;;;9.75;6.90;;;13.40;99.90;;;;;;6159402;23;20471;-77
2022/10/01 08:07:48;;;;;;;7.10;6.40;;;13.40;99.90;;;;;;6158633;23;20565;-77
2022/10/01 08:10:17;;;;;;;8.23;7.38;;;13.40;99.90;;;;;;6157571;23;20629;-80
2022/10/01 08:12:45;;;;;;;7.70;6.90;;;13.50;99.90;;;;;;6159775;23;20658;-80
2022/10/01 08:15:18;;;;;;;6.25;5.65;;;13.50;99.90;;;;;;6155759;23;22345;-81
2022/10/01 08:17:45;;;;;;;6.20;5.60;;;13.60;99.90;;;;;;6159287;23;20553;-80
2022/10/01 08:20:14;;;;;;;12.15;10.95;;;13.70;99.90;;;;;;6158365;23;20677;-80
2022/10/01 08:22:41;;;;;;;10.85;9.60;;;13.70;99.90;;;;;;6158311;23;20214;-80
2022/10/01 08:25:08;;;;;;;7.18;6.38;;;13.70;99.90;;;;;;6157236;23;20213;-81
2022/10/01 08:27:36;;;;;;;8.75;7.47;;;13.70;99.90;;;;;;6158407;23;20210;-80
2022/10/01 08:30:04;;;;;;;7.00;6.05;;;13.70;99.90;;;;;;6156942;23;20268;-80
2022/10/01 08:32:33;;;;;;;8.25;7.43;;;13.70;99.90;;;;;;6158710;23;20214;-77
2022/10/01 08:35:03;;;;;;;7.78;6.93;;;13.80;99.90;;;;;;6157266;23;20256;-78
2022/10/01 08:37:31;;;;;;;8.23;6.47;;;13.80;99.90;;;;;;6158002;23;20213;-77
2022/10/01 08:40:02;;;;;;;9.40;6.90;;;13.80;99.90;;;;;;6157348;23;20445;-77
2022/10/01 08:42:53;;;;;;;7.82;7.05;;;13.80;99.90;;;;;;6156774;23;20218;-80
2022/10/01 08:45:26;;;;;;;7.57;6.53;;;13.90;99.90;;;;;;6147476;23;20257;-80
2022/10/01 08:48:01;;;;;;;6.00;5.50;;;13.90;99.90;;;;;;6162633;23;20206;-80
2022/10/01 08:50:45;;;;;;;4.88;4.47;;;13.90;99.90;;;;;;6138492;23;20213;-80
2022/10/01 08:53:20;;;;;;;6.78;6.18;;;14.00;99.90;;;;;;6140393;23;20202;-78
2022/10/01 08:55:48;;;;;;;7.00;6.30;;;14.10;99.90;;;;;;6157718;23;20198;-77
2022/10/01 08:58:29;;;;;;;10.65;8.70;;;14.10;99.90;;;;;;6158006;23;20453;-83
2022/10/01 09:00:56;;;;;;;7.68;6.97;;;14.20;99.90;;;;;;6158637;23;20206;-81
2022/10/01 09:03:30;;;;;;;7.03;6.30;;;14.20;99.90;;;;;;6157802;23;20488;-79
2022/10/01 09:06:10;;;;;;;6.27;5.77;;;14.20;99.90;;;;;;6157190;23;20921;-79
2022/10/01 09:08:47;;;;;;;13.18;11.38;;;14.30;99.90;;;;;;6156993;23;20429;-80
2022/10/01 09:11:24;;;;;;;8.07;7.27;;;14.30;99.90;;;;;;6156166;23;20660;-80
2022/10/01 09:14:06;;;;;;;8.13;6.43;;;14.40;99.90;;;;;;6158492;23;20496;-79
2022/10/01 09:16:39;;;;;;;6.20;5.60;;;14.40;99.90;;;;;;6156991;23;20437;-80
2022/10/01 09:19:24;;;;;;;5.33;4.80;;;14.40;99.90;;;;;;6157716;23;20434;-81
2022/10/01 09:21:56;;;;;;;6.10;5.47;;;14.50;99.90;;;;;;6157475;23;20511;-80
2022/10/01 09:24:32;;;;;;;5.80;5.20;;;14.60;99.90;;;;;;6156436;23;20726;-77
2022/10/01 09:27:01;;;;;;;6.83;5.20;;;14.60;99.90;;;;;;6156869;23;20727;-79
2022/10/01 09:29:40;;;;;;;6.10;5.60;;;14.60;99.90;;;;;;6154966;23;20426;-78
2022/10/01 09:32:07;;;;;;;6.17;5.57;;;14.60;99.90;;;;;;6155127;23;20848;-78
2022/10/01 09:34:40;;;;;;;6.70;4.90;;;14.70;99.90;;;;;;6156290;23;20931;-79
2022/10/01 09:37:18;;;;;;;5.93;4.90;;;14.70;99.90;;;;;;6156848;23;20442;-78
2022/10/01 09:39:56;;;;;;;5.00;4.60;;;14.70;99.90;;;;;;6157156;23;20438;-79
2022/10/01 09:42:27;;;;;;;5.20;4.70;;;14.80;99.90;;;;;;6155529;23;20719;-79
2022/10/01 09:44:58;;;;;;;4.20;3.90;;;14.80;99.90;;;;;;6128276;23;20439;-78
2022/10/01 09:47:28;;;;;;;4.73;4.10;;;14.80;99.90;;;;;;6142413;23;20433;-82
2022/10/01 09:50:00;;;;;;;4.00;3.60;;;14.80;99.90;;;;;;6157821;23;20445;-82
2022/10/01 09:52:33;;;;;;;10.37;7.50;;;14.90;99.90;;;;;;6157290;23;20508;-78
2022/10/01 09:55:05;;;;;;;12.23;5.43;;;14.90;99.90;;;;;;6156784;23;20455;-78
2022/10/01 09:57:34;;;;;;;8.10;4.03;;;14.90;99.90;;;;;;6157125;23;20433;-79
2022/10/01 10:00:08;;;;;;;3.77;3.47;;;14.90;99.90;;;;;;6155935;23;20934;-77
2022/10/01 10:02:41;;;;;;;4.40;4.00;;;14.90;99.90;;;;;;6158149;23;23223;-82
2022/10/01 10:05:14;;;;;;;6.03;5.00;;;14.90;99.90;;;;;;6158216;23;20437;-77
2022/10/01 10:07:45;;;;;;;3.97;3.67;;;14.80;99.90;;;;;;6157744;23;20759;-82
2022/10/01 10:10:20;;;;;;;3.40;3.10;;;14.80;99.90;;;;;;6115737;23;21006;-83
2022/10/01 10:12:48;;;;;;;3.67;3.37;;;14.80;99.90;;;;;;6157050;23;20512;-83
2022/10/01 10:15:20;;;;;;;3.93;3.63;;;14.80;99.90;;;;;;6157486;23;20449;-83
2022/10/01 10:17:50;;;;;;;3.63;3.33;;;14.70;99.90;;;;;;6157922;23;20429;-81
2022/10/01 10:20:28;;;;;;;4.17;3.20;;;14.70;99.90;;;;;;6158864;23;20929;-82
2022/10/01 10:23:06;;;;;;;3.72;2.83;;;14.60;99.90;;;;;;6156725;23;20500;-79
2022/10/01 10:25:32;;;;;;;4.50;3.57;;;14.60;99.90;;;;;;6128540;23;20662;-79
2022/10/01 10:28:18;;;;;;;4.60;4.20;;;14.60;99.90;;;;;;6144993;23;20434;-77
2022/10/01 10:30:49;;;;;;;4.73;4.17;;;14.50;99.90;;;;;;6159551;23;20266;-78
2022/10/01 10:33:19;;;;;;;4.40;4.00;;;14.50;99.90;;;;;;6162642;23;20483;-82
2022/10/01 10:36:05;;;;;;;5.13;4.72;;;14.40;99.90;;;;;;6166358;23;20237;-81
2022/10/01 10:38:34;;;;;;;6.95;5.18;;;14.30;99.90;;;;;;6165973;23;20510;-82
2022/10/01 10:41:25;;;;;;;4.70;4.30;;;14.30;99.90;;;;;;5166518;27;20562;-81
2022/10/01 10:43:56;;;;;;;4.82;4.25;;;14.20;99.90;;;;;;5114149;28;20464;-78
2022/10/01 10:46:30;;;;;;;4.85;4.35;;;14.20;99.90;;;;;;5115897;28;20226;-81
2022/10/01 10:49:03;;;;;;;4.60;4.30;;;14.10;99.90;;;;;;5118712;28;20226;-81
2022/10/01 10:51:52;;;;;;;6.15;5.55;;;14.10;99.90;;;;;;5117904;28;20226;-81
2022/10/01 10:54:26;;;;;;;7.70;5.95;;;13.90;99.90;;;;;;5101868;28;20236;-82
2022/10/01 10:56:59;;;;;;;8.15;7.35;;;13.80;99.90;;;;;;5107939;28;20226;-81
2022/10/01 10:59:27;;;;;;;7.10;6.50;;;13.80;99.90;;;;;;5106220;28;20253;-77
2022/10/01 11:02:04;;;;;;;12.45;10.95;;;13.90;99.90;;;;;;5111913;28;20511;-78
2022/10/01 11:04:40;;;;;;;12.45;9.98;;;13.70;99.90;;;;;;5139454;28;20282;-79
2022/10/01 11:07:07;;;;;;;7.63;6.47;;;13.70;99.90;;;;;;5131297;28;20286;-77
2022/10/01 11:09:57;;;;;;;5.40;4.90;;;13.70;99.90;;;;;;5132307;28;20223;-79
2022/10/01 11:12:42;;;;;;;6.28;5.53;;;13.70;99.90;;;;;;5131051;27;20648;-78
2022/10/01 11:15:24;;;;;;;9.43;5.70;;;13.60;99.90;;;;;;5131986;28;20218;-77
2022/10/01 11:18:08;;;;;;;7.38;6.70;;;13.60;99.90;;;;;;5132964;28;20222;-78
2022/10/01 11:20:48;;;;;;;15.55;11.45;;;13.60;99.90;;;;;;5127064;28;20243;-81
2022/10/01 11:23:40;;;;;;;6.47;5.95;;;13.60;99.90;;;;;;5133707;28;20214;-81
2022/10/01 11:26:20;;;;;;;6.13;5.63;;;13.60;99.90;;;;;;5111000;28;20204;-80
2022/10/01 11:29:04;;;;;;;5.72;5.22;;;13.60;99.90;;;;;;5114564;28;20257;-80
2022/10/01 11:31:39;;;;;;;5.72;5.22;;;13.60;99.90;;;;;;5130309;28;20230;-82
2022/10/01 11:34:40;;;;;;;6.18;5.57;;;13.60;99.90;;;;;;5121911;28;20252;-81
2022/10/01 11:37:19;;;;;;;6.50;5.90;;;13.50;99.90;;;;;;5124357;28;20218;-77
2022/10/01 11:39:51;;;;;;;6.10;5.53;;;13.50;99.90;;;;;;5113757;28;20221;-78
2022/10/01 11:42:26;;;;;;;6.75;5.53;;;13.60;99.90;;;;;;5112804;28;20607;-78
2022/10/01 11:45:03;;;;;;;5.25;4.82;;;13.60;99.90;;;;;;5113023;28;20253;-78
2022/10/01 11:47:34;;;;;;;5.00;4.57;;;13.70;99.90;;;;;;5113304;28;20246;-78
2022/10/01 11:50:04;;;;;;;5.80;5.30;;;13.70;99.90;;;;;;5112741;28;20223;-78
2022/10/01 11:52:37;;;;;;;5.15;4.75;;;13.70;99.90;;;;;;5098593;28;20224;-78
2022/10/01 12:01:07;;;;;;;5.10;4.60;;;13.70;99.90;;;;;;5072907;28;20306;-78
2022/10/01 12:03:46;;;;;;;4.20;3.90;;;13.60;99.90;;;;;;5099765;28;20280;-82
2022/10/01 12:06:14;;;;;;;4.22;3.92;;;13.60;99.90;;;;;;5107277;28;20293;-81
2022/10/01 12:08:47;;;;;;;6.32;4.32;;;13.70;99.90;;;;;;5108049;28;20219;-80
2022/10/01 12:11:20;;;;;;;4.88;4.38;;;13.70;99.90;;;;;;5107020;28;20295;-78
2022/10/01 12:13:54;;;;;;;5.88;5.10;;;13.70;99.90;;;;;;5098227;28;20223;-79
2022/10/01 12:16:34;;;;;;;5.70;4.30;;;13.60;99.90;;;;;;5098352;28;20246;-79
2022/10/01 12:19:10;;;;;;;4.97;4.38;;;13.60;99.90;;;;;;5097615;28;20223;-79
2022/10/01 12:21:42;;;;;;;4.65;4.25;;;13.60;99.90;;;;;;5102049;28;20223;-81
2022/10/01 12:24:16;;;;;;;3.72;3.35;;;13.60;99.90;;;;;;5106234;28;20249;-82
2022/10/01 12:27:01;;;;;;;5.40;4.73;;;13.60;99.90;;;;;;5105846;28;20223;-81
2022/10/01 12:29:39;;;;;;;8.27;7.22;;;13.70;99.90;;;;;;5100655;28;20519;-82
2022/10/01 12:32:17;;;;;;;8.57;7.78;;;13.60;99.90;;;;;;5103951;28;20227;-78
2022/10/01 12:34:53;;;;;;;10.77;8.93;;;13.70;99.90;;;;;;5096792;28;20732;-78
2022/10/01 12:37:40;;;;;;;7.65;6.97;;;13.70;99.90;;;;;;5096380;28;20497;-79
2022/10/01 12:40:43;;;;;;;4.30;3.90;;;13.70;99.90;;;;;;5094965;28;20596;-78
2022/10/01 12:43:39;;;;;;;4.82;4.43;;;13.70;99.90;;;;;;5095206;28;20219;-79
2022/10/01 12:46:14;;;;;;;3.50;3.30;;;13.70;99.90;;;;;;5082157;28;20223;-80
2022/10/01 12:49:02;;;;;;;4.00;3.70;;;13.70;99.90;;;;;;5096211;28;20559;-80
2022/10/01 12:51:42;;;;;;;3.80;3.50;;;13.70;99.90;;;;;;5097560;28;20215;-79
2022/10/01 12:54:27;;;;;;;4.22;3.60;;;13.70;99.90;;;;;;5095913;28;20616;-80
2022/10/01 12:57:09;;;;;;;3.55;3.25;;;13.70;99.90;;;;;;5095504;28;20223;-79
2022/10/01 12:59:52;;;;;;;4.15;3.85;;;13.70;99.90;;;;;;5099568;28;20219;-79
2022/10/01 13:02:42;;;;;;;4.30;4.00;;;13.70;99.90;;;;;;5103162;28;20570;-82
2022/10/01 13:05:20;;;;;;;3.80;3.50;;;13.60;99.90;;;;;;5104433;28;20622;-80
2022/10/01 13:08:05;;;;;;;4.57;4.18;;;13.70;99.90;;;;;;5104747;28;20215;-78
2022/10/01 13:10:50;;;;;;;3.22;3.03;;;13.70;99.90;;;;;;5099124;28;20235;-82
2022/10/01 13:13:22;;;;;;;4.57;4.13;;;13.70;99.90;;;;;;5102185;28;20230;-79
2022/10/01 13:15:58;;;;;;;3.83;3.53;;;13.60;99.90;;;;;;5105670;28;20215;-81
2022/10/01 13:18:36;;;;;;;4.68;4.20;;;13.60;99.90;;;;;;5101580;28;20227;-82